Time;durP1;ratioP1;P1;durP2;ratioP2;P2;SDS_P1;SDS_P2;PMS_P1;PMS_P2;Temp;Humidity;BMP_temperature;BMP_pressure;BME280_temperature;BME280_humidity;BME280_pressure;Samples;Min_cycle;Max_cycle;Signal;HPM_P1;HPM_P2
2021/08/30 00:01:47;;;;;;;19.60;12.63;;;;;;;;;;5055763;28;20036;-84
2021/08/30 00:04:12;;;;;;;19.20;12.20;;;;;;;;;;5056350;28;20744;-84
2021/08/30 00:06:40;;;;;;;14.40;10.80;;;;;;;;;;5053132;28;20283;-84
2021/08/30 00:09:06;;;;;;;16.98;11.57;;;;;;;;;;5055086;28;21090;-84
2021/08/30 00:11:31;;;;;;;16.55;10.95;;;;;;;;;;5053169;28;20053;-84
2021/08/30 00:13:56;;;;;;;14.98;10.70;;;;;;;;;;5053002;28;20020;-84
2021/08/30 00:16:22;;;;;;;21.38;10.77;;;;;;;;;;5053944;28;20519;-84
2021/08/30 00:18:47;;;;;;;14.07;10.57;;;;;;;;;;5053886;28;20469;-84
2021/08/30 00:21:12;;;;;;;15.38;10.45;;;;;;;;;;5054043;28;20025;-84
2021/08/30 00:23:37;;;;;;;14.80;10.98;;;;;;;;;;5056297;28;20055;-84
2021/08/30 00:26:04;;;;;;;26.00;11.48;;;;;;;;;;5056468;28;20025;-84
2021/08/30 00:28:30;;;;;;;12.15;10.00;;;;;;;;;;5055503;28;20043;-84
2021/08/30 00:30:55;;;;;;;11.00;9.88;;;;;;;;;;5053689;28;20025;-84
2021/08/30 00:33:21;;;;;;;16.48;10.60;;;;;;;;;;5052935;28;20021;-84
2021/08/30 00:35:46;;;;;;;13.05;10.77;;;;;;;;;;5052825;28;20054;-84
2021/08/30 00:38:11;;;;;;;15.43;10.83;;;;;;;;;;5054208;28;20021;-84
2021/08/30 00:40:37;;;;;;;16.50;10.63;;;;;;;;;;5052722;28;20254;-84
2021/08/30 00:43:02;;;;;;;16.45;10.95;;;;;;;;;;5053866;28;20020;-84
2021/08/30 00:45:28;;;;;;;13.50;10.68;;;;;;;;;;5053645;28;20684;-84
2021/08/30 00:47:54;;;;;;;18.53;11.83;;;;;;;;;;5053289;28;20033;-84
2021/08/30 00:50:19;;;;;;;12.27;10.63;;;;;;;;;;5057407;28;20270;-85
2021/08/30 00:52:44;;;;;;;17.17;10.93;;;;;;;;;;5054875;28;20021;-84
2021/08/30 00:55:10;;;;;;;18.67;11.10;;;;;;;;;;5056099;28;20445;-84
2021/08/30 00:57:35;;;;;;;21.50;11.98;;;;;;;;;;5055285;28;20343;-84
2021/08/30 01:00:01;;;;;;;20.77;11.40;;;;;;;;;;5054924;28;20075;-84
2021/08/30 01:02:26;;;;;;;16.48;10.82;;;;;;;;;;5053844;28;20259;-84
2021/08/30 01:04:51;;;;;;;12.53;10.70;;;;;;;;;;5053561;28;20391;-84
2021/08/30 01:07:22;;;;;;;12.85;10.70;;;;;;;;;;5053353;28;20275;-84
2021/08/30 01:09:53;;;;;;;17.77;11.90;;;;;;;;;;5053898;28;20028;-84
2021/08/30 01:12:42;;;;;;;17.50;11.43;;;;;;;;;;5051740;28;20029;-84
2021/08/30 01:15:13;;;;;;;14.40;10.63;;;;;;;;;;5048449;28;20143;-84
2021/08/30 01:17:38;;;;;;;19.40;11.52;;;;;;;;;;5055195;28;20508;-84
2021/08/30 01:20:03;;;;;;;18.23;11.00;;;;;;;;;;5054638;28;20040;-84
2021/08/30 01:22:29;;;;;;;13.93;11.05;;;;;;;;;;5054911;28;20057;-84
2021/08/30 01:24:55;;;;;;;13.82;10.50;;;;;;;;;;5053725;28;20020;-84
2021/08/30 01:27:21;;;;;;;16.35;11.35;;;;;;;;;;5052920;28;20055;-84
2021/08/30 01:29:52;;;;;;;14.93;11.10;;;;;;;;;;5052907;28;20532;-84
2021/08/30 01:32:28;;;;;;;16.48;12.73;;;;;;;;;;5051237;28;20052;-84
2021/08/30 01:34:54;;;;;;;22.60;12.15;;;;;;;;;;5052428;28;20036;-84
2021/08/30 01:37:19;;;;;;;14.95;11.75;;;;;;;;;;5052329;28;20029;-84
2021/08/30 01:39:45;;;;;;;12.75;10.95;;;;;;;;;;5053523;28;20107;-84
2021/08/30 01:42:10;;;;;;;14.00;11.35;;;;;;;;;;5051461;28;20119;-84
2021/08/30 01:44:35;;;;;;;16.65;12.13;;;;;;;;;;5054048;28;20039;-84
2021/08/30 01:47:01;;;;;;;18.77;13.05;;;;;;;;;;5052686;28;20500;-84
2021/08/30 01:49:27;;;;;;;18.05;12.63;;;;;;;;;;5054862;28;20381;-84
2021/08/30 01:51:52;;;;;;;14.55;12.88;;;;;;;;;;5054008;28;20024;-84
2021/08/30 01:54:19;;;;;;;18.63;13.10;;;;;;;;;;5052880;28;20028;-84
2021/08/30 01:56:49;;;;;;;20.05;13.73;;;;;;;;;;5052078;28;20477;-84
2021/08/30 02:01:58;;;;;;;20.80;13.40;;;;;;;;;;5052141;28;20035;-84
2021/08/30 02:04:23;;;;;;;16.98;13.32;;;;;;;;;;5050992;28;20021;-84
2021/08/30 02:06:49;;;;;;;20.63;13.03;;;;;;;;;;5051905;28;20143;-84
2021/08/30 02:09:14;;;;;;;17.77;13.53;;;;;;;;;;5050294;28;20256;-84
2021/08/30 02:11:39;;;;;;;19.63;13.80;;;;;;;;;;5051621;28;20742;-84
2021/08/30 02:14:07;;;;;;;20.42;13.05;;;;;;;;;;5051455;28;20013;-84
2021/08/30 02:16:33;;;;;;;17.02;12.93;;;;;;;;;;5049900;28;20504;-84
2021/08/30 02:19:02;;;;;;;19.17;13.35;;;;;;;;;;5051801;28;20040;-85
2021/08/30 02:21:45;;;;;;;15.32;12.30;;;;;;;;;;5053356;28;20028;-84
2021/08/30 02:24:16;;;;;;;38.30;12.30;;;;;;;;;;5054371;28;20133;-84
2021/08/30 02:26:51;;;;;;;23.50;12.45;;;;;;;;;;5052039;28;20033;-84
2021/08/30 02:29:19;;;;;;;18.75;12.27;;;;;;;;;;5053523;28;20012;-84
2021/08/30 02:31:46;;;;;;;16.63;12.40;;;;;;;;;;5050080;28;20025;-84
2021/08/30 02:34:11;;;;;;;18.70;12.10;;;;;;;;;;5052371;28;20033;-84
2021/08/30 02:36:37;;;;;;;20.85;11.88;;;;;;;;;;5051891;28;20028;-84
2021/08/30 02:39:03;;;;;;;17.73;11.40;;;;;;;;;;5050119;28;20396;-84
2021/08/30 02:41:28;;;;;;;14.43;11.93;;;;;;;;;;5051361;28;20027;-84
2021/08/30 02:43:54;;;;;;;16.67;12.18;;;;;;;;;;5050891;28;20107;-84
2021/08/30 02:46:19;;;;;;;20.63;12.13;;;;;;;;;;5053563;28;20036;-85
2021/08/30 02:48:46;;;;;;;16.47;11.80;;;;;;;;;;5053373;28;20070;-84
2021/08/30 02:51:11;;;;;;;12.68;11.10;;;;;;;;;;5054259;28;20287;-85
2021/08/30 02:53:37;;;;;;;17.15;11.70;;;;;;;;;;5053113;28;20055;-84
2021/08/30 02:56:02;;;;;;;15.65;11.23;;;;;;;;;;5052194;28;20028;-84
2021/08/30 02:58:28;;;;;;;13.88;12.18;;;;;;;;;;5050240;28;20021;-84
2021/08/30 03:00:54;;;;;;;19.52;11.93;;;;;;;;;;5050993;28;20116;-84
2021/08/30 03:03:19;;;;;;;17.58;11.70;;;;;;;;;;5049846;28;20533;-84
2021/08/30 03:05:45;;;;;;;13.32;11.65;;;;;;;;;;5051284;28;20029;-84
2021/08/30 03:08:11;;;;;;;16.55;11.30;;;;;;;;;;5050676;28;20025;-84
2021/08/30 03:10:36;;;;;;;13.13;11.30;;;;;;;;;;5050904;28;20158;-84
2021/08/30 03:13:02;;;;;;;19.08;12.35;;;;;;;;;;5050796;28;20091;-84
2021/08/30 03:15:28;;;;;;;18.38;11.82;;;;;;;;;;5049095;28;20045;-84
2021/08/30 03:17:54;;;;;;;13.95;11.98;;;;;;;;;;5053392;28;20114;-84
2021/08/30 03:20:20;;;;;;;14.82;10.65;;;;;;;;;;5051235;28;20028;-84
2021/08/30 03:22:47;;;;;;;16.77;11.10;;;;;;;;;;5053224;28;20021;-84
2021/08/30 03:25:14;;;;;;;17.50;11.75;;;;;;;;;;5050536;28;20444;-84
2021/08/30 03:27:44;;;;;;;19.63;12.20;;;;;;;;;;5051679;28;20230;-84
2021/08/30 03:30:10;;;;;;;19.77;11.90;;;;;;;;;;5052430;28;20396;-84
2021/08/30 03:32:37;;;;;;;21.13;12.27;;;;;;;;;;5057971;28;20020;-84
2021/08/30 03:35:02;;;;;;;18.13;11.95;;;;;;;;;;5057425;28;20049;-84
2021/08/30 03:37:27;;;;;;;21.75;11.43;;;;;;;;;;5057289;28;20056;-84
2021/08/30 03:39:53;;;;;;;20.08;10.98;;;;;;;;;;5055722;28;20024;-84
2021/08/30 03:42:18;;;;;;;19.23;12.48;;;;;;;;;;5056995;28;20028;-84
2021/08/30 03:44:44;;;;;;;17.50;11.95;;;;;;;;;;5057074;28;20522;-84
2021/08/30 03:47:10;;;;;;;17.25;12.10;;;;;;;;;;5058540;28;20025;-84
2021/08/30 03:49:36;;;;;;;17.65;12.25;;;;;;;;;;5058900;28;20013;-84
2021/08/30 03:52:02;;;;;;;15.75;11.68;;;;;;;;;;5058055;28;20012;-84
2021/08/30 03:54:27;;;;;;;18.00;12.48;;;;;;;;;;5058470;28;20021;-84
2021/08/30 03:56:53;;;;;;;15.13;11.55;;;;;;;;;;5058318;28;20082;-84
2021/08/30 03:59:19;;;;;;;16.80;11.95;;;;;;;;;;5057839;28;20092;-84
2021/08/30 04:01:45;;;;;;;15.82;11.90;;;;;;;;;;5057455;28;20358;-84
2021/08/30 04:04:16;;;;;;;14.52;11.48;;;;;;;;;;5057932;28;20037;-84
2021/08/30 04:06:45;;;;;;;16.92;12.60;;;;;;;;;;5057822;28;20024;-84
2021/08/30 04:09:13;;;;;;;21.30;11.27;;;;;;;;;;5056235;28;20164;-84
2021/08/30 04:11:39;;;;;;;16.08;12.18;;;;;;;;;;5055374;28;20052;-84
2021/08/30 04:14:04;;;;;;;16.47;12.47;;;;;;;;;;5057360;28;20110;-84
2021/08/30 04:16:29;;;;;;;16.27;12.20;;;;;;;;;;5057034;28;20899;-84
2021/08/30 04:18:56;;;;;;;15.38;11.93;;;;;;;;;;5057636;28;20263;-84
2021/08/30 04:21:22;;;;;;;16.70;12.73;;;;;;;;;;5056626;28;20028;-85
2021/08/30 04:23:47;;;;;;;17.30;11.70;;;;;;;;;;5056075;28;20017;-84
2021/08/30 04:26:12;;;;;;;15.48;11.98;;;;;;;;;;5056204;28;20689;-84
2021/08/30 04:28:38;;;;;;;17.90;12.00;;;;;;;;;;5057607;28;20047;-84
2021/08/30 04:31:03;;;;;;;17.73;12.03;;;;;;;;;;5057385;28;20268;-84
2021/08/30 04:33:28;;;;;;;20.52;12.45;;;;;;;;;;5055426;28;20646;-84
2021/08/30 04:35:53;;;;;;;17.23;12.00;;;;;;;;;;5057053;28;20021;-84
2021/08/30 04:38:18;;;;;;;19.03;11.77;;;;;;;;;;5056803;28;20381;-84
2021/08/30 04:40:44;;;;;;;19.73;11.05;;;;;;;;;;5057013;28;20025;-84
2021/08/30 04:43:10;;;;;;;18.85;11.68;;;;;;;;;;5053732;28;20534;-84
2021/08/30 04:45:36;;;;;;;16.30;11.75;;;;;;;;;;5051903;28;20032;-84
2021/08/30 04:48:01;;;;;;;16.38;12.00;;;;;;;;;;5053820;28;20021;-85
2021/08/30 04:50:26;;;;;;;18.15;12.88;;;;;;;;;;5055161;28;20048;-84
2021/08/30 04:52:52;;;;;;;15.48;10.95;;;;;;;;;;5055177;28;20086;-84
2021/08/30 04:55:17;;;;;;;13.77;11.45;;;;;;;;;;5055374;28;20489;-84
2021/08/30 04:57:42;;;;;;;16.67;11.47;;;;;;;;;;5054224;28;20025;-84
2021/08/30 05:00:08;;;;;;;17.37;11.63;;;;;;;;;;5055875;28;20472;-84
2021/08/30 05:02:33;;;;;;;13.98;11.38;;;;;;;;;;5054207;28;20410;-84
2021/08/30 05:04:58;;;;;;;17.73;12.13;;;;;;;;;;5053018;28;20021;-84
2021/08/30 05:07:23;;;;;;;19.25;11.68;;;;;;;;;;5052199;28;20021;-84
2021/08/30 05:09:49;;;;;;;16.48;11.73;;;;;;;;;;5051682;28;20103;-84
2021/08/30 05:12:14;;;;;;;18.97;11.97;;;;;;;;;;5051350;28;20020;-84
2021/08/30 05:14:39;;;;;;;22.93;11.40;;;;;;;;;;5051444;28;20271;-84
2021/08/30 05:17:04;;;;;;;14.07;10.77;;;;;;;;;;5052781;28;20148;-85
2021/08/30 05:19:29;;;;;;;20.53;11.13;;;;;;;;;;5054448;28;20465;-85
2021/08/30 05:21:55;;;;;;;16.03;11.63;;;;;;;;;;5053497;28;20278;-84
2021/08/30 05:24:20;;;;;;;14.98;11.15;;;;;;;;;;5053800;28;20404;-84
2021/08/30 05:26:45;;;;;;;13.20;11.27;;;;;;;;;;5053865;28;20388;-84
2021/08/30 05:29:10;;;;;;;14.85;12.02;;;;;;;;;;5053961;28;20252;-84
2021/08/30 05:31:35;;;;;;;14.70;12.20;;;;;;;;;;5052933;28;20025;-83
2021/08/30 05:34:01;;;;;;;15.17;11.40;;;;;;;;;;5053055;28;20025;-83
2021/08/30 05:36:27;;;;;;;16.40;12.23;;;;;;;;;;5052354;28;20263;-84
2021/08/30 05:38:53;;;;;;;15.32;11.25;;;;;;;;;;5052195;28;20111;-84
2021/08/30 05:41:19;;;;;;;13.40;10.82;;;;;;;;;;5052302;28;20533;-84
2021/08/30 05:43:44;;;;;;;16.50;10.88;;;;;;;;;;5051678;28;20040;-84
2021/08/30 05:46:12;;;;;;;14.90;10.77;;;;;;;;;;5054435;28;20080;-85
2021/08/30 05:48:37;;;;;;;20.92;11.70;;;;;;;;;;5051737;28;20405;-84
2021/08/30 05:51:03;;;;;;;17.60;11.37;;;;;;;;;;5051524;28;20009;-84
2021/08/30 05:53:28;;;;;;;18.50;11.90;;;;;;;;;;5050384;28;20267;-84
2021/08/30 05:55:53;;;;;;;15.10;10.30;;;;;;;;;;5052643;28;20491;-84
2021/08/30 05:58:18;;;;;;;11.97;9.47;;;;;;;;;;5052442;28;20609;-84
2021/08/30 06:00:43;;;;;;;19.55;11.23;;;;;;;;;;5050957;28;20655;-84
2021/08/30 06:03:09;;;;;;;20.13;11.82;;;;;;;;;;5050824;28;20031;-84
2021/08/30 06:05:34;;;;;;;19.10;11.05;;;;;;;;;;5051763;28;20465;-83
2021/08/30 06:07:59;;;;;;;16.27;11.50;;;;;;;;;;5051972;28;20104;-84
2021/08/30 06:10:24;;;;;;;14.63;10.83;;;;;;;;;;5051883;28;20078;-84
2021/08/30 06:12:51;;;;;;;15.63;11.00;;;;;;;;;;5051946;28;20255;-84
2021/08/30 06:15:16;;;;;;;15.73;11.15;;;;;;;;;;5051466;28;20102;-84
2021/08/30 06:17:41;;;;;;;18.60;11.57;;;;;;;;;;5050076;28;20033;-84
2021/08/30 06:20:07;;;;;;;13.13;11.17;;;;;;;;;;5050420;28;20271;-84
2021/08/30 06:22:32;;;;;;;17.25;10.85;;;;;;;;;;5054421;28;20048;-84
2021/08/30 06:24:57;;;;;;;17.17;10.97;;;;;;;;;;5051249;28;20027;-84
2021/08/30 06:27:22;;;;;;;16.07;10.30;;;;;;;;;;5052662;28;20024;-84
2021/08/30 06:29:48;;;;;;;15.67;9.73;;;;;;;;;;5052289;28;20260;-84
2021/08/30 06:32:13;;;;;;;18.52;10.82;;;;;;;;;;5051602;28;20305;-84
2021/08/30 06:34:38;;;;;;;16.77;9.65;;;;;;;;;;5051929;28;20487;-84
2021/08/30 06:37:03;;;;;;;16.75;10.30;;;;;;;;;;5051303;28;20384;-84
2021/08/30 06:39:29;;;;;;;16.00;10.68;;;;;;;;;;5051483;28;20112;-84
2021/08/30 06:41:54;;;;;;;17.63;10.00;;;;;;;;;;5053481;28;20029;-84
2021/08/30 06:44:19;;;;;;;18.87;11.10;;;;;;;;;;5050827;28;20058;-84
2021/08/30 06:46:44;;;;;;;17.43;10.37;;;;;;;;;;5051781;28;20981;-84
2021/08/30 06:49:10;;;;;;;16.40;9.63;;;;;;;;;;5052034;28;20259;-84
2021/08/30 06:51:35;;;;;;;14.73;9.63;;;;;;;;;;5049799;28;20279;-84
2021/08/30 06:54:00;;;;;;;13.57;9.90;;;;;;;;;;5050958;28;20040;-84
2021/08/30 06:56:25;;;;;;;16.07;10.70;;;;;;;;;;5050995;28;20272;-84
2021/08/30 06:58:50;;;;;;;17.63;10.48;;;;;;;;;;5050619;28;20181;-84
2021/08/30 07:01:16;;;;;;;12.90;10.03;;;;;;;;;;5050593;28;20098;-84
2021/08/30 07:03:41;;;;;;;16.42;10.23;;;;;;;;;;5050388;28;20777;-84
2021/08/30 07:06:06;;;;;;;14.75;9.98;;;;;;;;;;5050046;28;20024;-84
2021/08/30 07:08:31;;;;;;;14.57;9.63;;;;;;;;;;5051126;28;20032;-84
2021/08/30 07:10:57;;;;;;;15.57;10.32;;;;;;;;;;5051499;28;20092;-84
2021/08/30 07:13:22;;;;;;;14.87;9.73;;;;;;;;;;5051551;28;20079;-84
2021/08/30 07:15:48;;;;;;;14.90;9.10;;;;;;;;;;5049808;28;20049;-84
2021/08/30 07:18:13;;;;;;;13.23;10.20;;;;;;;;;;5051022;28;20020;-85
2021/08/30 07:20:39;;;;;;;12.07;8.27;;;;;;;;;;5050877;28;20021;-84
2021/08/30 07:23:04;;;;;;;13.40;8.70;;;;;;;;;;5049358;28;20029;-84
2021/08/30 07:25:29;;;;;;;13.90;8.85;;;;;;;;;;5049290;28;20263;-84
2021/08/30 07:27:54;;;;;;;13.48;8.35;;;;;;;;;;5048725;28;20029;-84
2021/08/30 07:30:19;;;;;;;14.20;8.53;;;;;;;;;;5049781;28;20021;-84
2021/08/30 07:32:45;;;;;;;11.18;8.13;;;;;;;;;;5050206;28;20256;-85
2021/08/30 07:35:10;;;;;;;12.97;7.53;;;;;;;;;;5050269;28;20060;-84
2021/08/30 07:37:36;;;;;;;12.30;8.07;;;;;;;;;;5050138;28;20354;-84
2021/08/30 07:40:02;;;;;;;14.20;8.88;;;;;;;;;;5050152;28;20032;-84
2021/08/30 07:42:27;;;;;;;9.13;7.45;;;;;;;;;;5048533;28;20037;-84
2021/08/30 07:44:53;;;;;;;14.93;8.13;;;;;;;;;;5050125;28;20025;-84
2021/08/30 07:47:18;;;;;;;12.50;8.00;;;;;;;;;;5048652;28;20278;-84
2021/08/30 07:49:43;;;;;;;9.90;8.02;;;;;;;;;;5050093;28;20255;-84
2021/08/30 07:52:09;;;;;;;9.93;7.75;;;;;;;;;;5050095;28;20029;-84
2021/08/30 07:54:34;;;;;;;12.40;7.93;;;;;;;;;;5049560;28;20060;-84
2021/08/30 07:56:59;;;;;;;9.23;7.72;;;;;;;;;;5050739;28;20035;-84
2021/08/30 07:59:24;;;;;;;10.00;7.63;;;;;;;;;;5050542;28;20029;-84
2021/08/30 08:01:49;;;;;;;12.57;8.13;;;;;;;;;;5048831;28;20263;-84
2021/08/30 08:04:15;;;;;;;11.15;7.60;;;;;;;;;;5050214;28;20256;-84
2021/08/30 08:06:40;;;;;;;11.67;7.63;;;;;;;;;;5050053;28;20028;-84
2021/08/30 08:09:05;;;;;;;12.93;7.93;;;;;;;;;;5048802;28;20412;-84
2021/08/30 08:11:31;;;;;;;13.45;7.95;;;;;;;;;;5049975;28;20251;-84
2021/08/30 08:13:56;;;;;;;10.10;7.00;;;;;;;;;;5050098;28;20029;-84
2021/08/30 08:16:21;;;;;;;10.37;7.13;;;;;;;;;;5048378;28;20052;-84
2021/08/30 08:18:46;;;;;;;9.73;7.07;;;;;;;;;;5052724;28;20060;-84
2021/08/30 08:21:12;;;;;;;12.40;8.07;;;;;;;;;;5053579;28;20063;-85
2021/08/30 08:23:37;;;;;;;11.15;7.28;;;;;;;;;;5054269;28;20061;-85
2021/08/30 08:26:02;;;;;;;10.98;7.60;;;;;;;;;;5052427;28;20020;-84
2021/08/30 08:28:28;;;;;;;13.50;7.40;;;;;;;;;;5052600;28;20021;-84
2021/08/30 08:30:53;;;;;;;7.85;7.05;;;;;;;;;;5052670;28;20101;-84
2021/08/30 08:33:19;;;;;;;11.07;6.97;;;;;;;;;;5053378;28;20477;-85
2021/08/30 08:35:44;;;;;;;14.00;7.20;;;;;;;;;;5051983;28;20029;-84
2021/08/30 08:38:10;;;;;;;8.43;7.38;;;;;;;;;;5053980;28;20029;-84
2021/08/30 08:40:35;;;;;;;10.98;7.00;;;;;;;;;;5054158;28;20807;-84
2021/08/30 08:43:01;;;;;;;11.93;7.50;;;;;;;;;;5053187;28;20025;-84
2021/08/30 08:45:27;;;;;;;8.30;6.78;;;;;;;;;;5040769;28;20029;-84
2021/08/30 08:47:52;;;;;;;10.48;7.95;;;;;;;;;;5040560;28;20462;-84
2021/08/30 08:50:22;;;;;;;11.65;6.93;;;;;;;;;;5051610;28;20107;-84
2021/08/30 08:52:48;;;;;;;12.60;7.10;;;;;;;;;;5033223;28;20029;-84
2021/08/30 08:55:14;;;;;;;14.23;7.22;;;;;;;;;;5047013;28;20020;-84
2021/08/30 08:57:39;;;;;;;9.07;7.63;;;;;;;;;;5031510;28;20021;-84
2021/08/30 09:00:09;;;;;;;10.70;7.30;;;;;;;;;;5031501;28;20021;-84
2021/08/30 09:02:34;;;;;;;10.65;7.55;;;;;;;;;;5039204;28;20075;-84
2021/08/30 09:05:00;;;;;;;11.95;7.80;;;;;;;;;;5049087;28;20029;-84
2021/08/30 09:07:34;;;;;;;15.20;7.03;;;;;;;;;;5045615;28;20025;-85
2021/08/30 09:09:59;;;;;;;14.68;7.28;;;;;;;;;;5032994;28;20101;-84
2021/08/30 09:12:24;;;;;;;9.50;6.43;;;;;;;;;;5047013;28;20489;-84
2021/08/30 09:14:50;;;;;;;13.85;7.13;;;;;;;;;;5038752;28;20489;-83
2021/08/30 09:17:15;;;;;;;15.70;7.93;;;;;;;;;;5046345;28;20132;-84
2021/08/30 09:19:41;;;;;;;13.18;7.70;;;;;;;;;;5031548;28;20736;-83
2021/08/30 09:22:08;;;;;;;9.15;7.63;;;;;;;;;;5032131;28;20059;-83
2021/08/30 09:24:34;;;;;;;9.00;7.28;;;;;;;;;;5049388;28;20090;-84
2021/08/30 09:27:02;;;;;;;9.85;6.60;;;;;;;;;;5035255;28;20021;-83
2021/08/30 09:29:29;;;;;;;10.98;7.25;;;;;;;;;;5049293;28;20017;-83
2021/08/30 09:32:05;;;;;;;8.85;7.05;;;;;;;;;;5040262;28;20052;-83
2021/08/30 09:34:31;;;;;;;8.82;6.78;;;;;;;;;;5046046;28;20844;-83
2021/08/30 09:36:57;;;;;;;9.68;6.78;;;;;;;;;;5048418;28;20108;-83
2021/08/30 09:39:22;;;;;;;11.50;6.90;;;;;;;;;;5030856;28;20113;-83
2021/08/30 09:41:47;;;;;;;14.63;6.65;;;;;;;;;;5031049;28;20393;-83
2021/08/30 09:44:13;;;;;;;9.27;6.72;;;;;;;;;;5044040;28;20078;-83
2021/08/30 09:46:38;;;;;;;12.93;6.00;;;;;;;;;;5033596;28;20032;-84
2021/08/30 09:49:05;;;;;;;12.03;6.87;;;;;;;;;;5036847;28;20111;-84
2021/08/30 09:51:35;;;;;;;7.85;6.15;;;;;;;;;;5047091;28;20818;-82
2021/08/30 09:54:00;;;;;;;9.75;6.68;;;;;;;;;;5043803;28;20115;-82
2021/08/30 09:56:25;;;;;;;12.10;6.80;;;;;;;;;;5048379;28;20445;-82
2021/08/30 09:58:50;;;;;;;10.20;6.27;;;;;;;;;;5050150;28;20029;-82
2021/08/30 10:01:16;;;;;;;9.82;6.82;;;;;;;;;;5030385;28;20259;-82
2021/08/30 10:03:41;;;;;;;14.30;6.40;;;;;;;;;;5039124;28;20029;-82
2021/08/30 10:06:07;;;;;;;9.85;6.50;;;;;;;;;;5038446;28;20048;-82
2021/08/30 10:08:32;;;;;;;8.43;6.40;;;;;;;;;;5045026;28;20453;-82
2021/08/30 10:10:58;;;;;;;12.98;6.32;;;;;;;;;;5030630;28;20025;-82
2021/08/30 10:13:24;;;;;;;7.43;5.95;;;;;;;;;;5042689;28;20438;-81
2021/08/30 10:15:50;;;;;;;7.65;6.55;;;;;;;;;;5038186;28;20051;-82
2021/08/30 10:18:18;;;;;;;10.23;6.78;;;;;;;;;;5047260;28;20091;-82
2021/08/30 10:20:45;;;;;;;9.38;6.28;;;;;;;;;;5030443;28;20026;-81
2021/08/30 10:23:10;;;;;;;8.45;6.20;;;;;;;;;;5043543;28;20509;-83
2021/08/30 10:25:37;;;;;;;9.95;6.55;;;;;;;;;;5037678;28;20502;-83
2021/08/30 10:28:04;;;;;;;8.38;5.68;;;;;;;;;;5035581;28;20033;-83
2021/08/30 10:30:32;;;;;;;8.30;5.90;;;;;;;;;;5042889;28;20128;-83
2021/08/30 10:32:58;;;;;;;7.75;6.30;;;;;;;;;;5032473;28;20017;-83
2021/08/30 10:35:26;;;;;;;6.68;5.90;;;;;;;;;;5037847;28;20021;-83
2021/08/30 10:37:54;;;;;;;6.50;5.78;;;;;;;;;;5038010;28;20033;-83
2021/08/30 10:40:20;;;;;;;9.20;6.45;;;;;;;;;;5042083;28;20021;-84
2021/08/30 10:42:55;;;;;;;8.70;6.20;;;;;;;;;;5030392;28;20655;-82
2021/08/30 10:45:28;;;;;;;11.57;6.28;;;;;;;;;;5033104;28;20488;-83
2021/08/30 10:47:57;;;;;;;10.27;5.88;;;;;;;;;;5036762;28;20030;-83
2021/08/30 10:50:24;;;;;;;6.90;6.05;;;;;;;;;;5041922;28;20444;-83
2021/08/30 10:52:49;;;;;;;6.75;5.65;;;;;;;;;;5046326;28;20499;-83
2021/08/30 10:55:16;;;;;;;6.93;5.78;;;;;;;;;;5031997;28;20017;-83
2021/08/30 10:57:41;;;;;;;7.13;5.45;;;;;;;;;;5040090;28;20481;-83
2021/08/30 11:00:10;;;;;;;6.35;5.45;;;;;;;;;;5033165;28;20040;-83
2021/08/30 11:02:39;;;;;;;6.07;5.43;;;;;;;;;;5046055;28;20045;-83
2021/08/30 11:05:05;;;;;;;8.23;5.95;;;;;;;;;;5014191;28;20017;-83
2021/08/30 11:07:30;;;;;;;11.50;6.10;;;;;;;;;;5048850;28;20025;-82
2021/08/30 11:09:55;;;;;;;7.37;5.93;;;;;;;;;;5035725;28;20033;-83
2021/08/30 11:12:21;;;;;;;7.03;5.47;;;;;;;;;;5042100;28;20052;-82
2021/08/30 11:14:53;;;;;;;7.73;6.33;;;;;;;;;;5031527;28;20067;-83
2021/08/30 11:17:24;;;;;;;7.68;5.63;;;;;;;;;;5042062;28;20300;-82
2021/08/30 11:19:52;;;;;;;6.90;5.43;;;;;;;;;;5028792;28;20129;-82
2021/08/30 11:22:17;;;;;;;7.45;5.47;;;;;;;;;;5027964;28;20059;-83
2021/08/30 11:24:43;;;;;;;10.83;5.80;;;;;;;;;;5028208;28;20068;-83
2021/08/30 11:27:10;;;;;;;8.50;6.00;;;;;;;;;;5043402;28;20306;-82
2021/08/30 11:29:41;;;;;;;13.23;6.50;;;;;;;;;;5035426;28;20024;-83
2021/08/30 11:32:06;;;;;;;8.10;6.20;;;;;;;;;;5035697;28;20032;-83
2021/08/30 11:34:32;;;;;;;6.70;5.72;;;;;;;;;;5043949;28;20477;-83
2021/08/30 11:36:59;;;;;;;10.73;6.45;;;;;;;;;;5031114;28;20032;-83
2021/08/30 11:39:24;;;;;;;7.93;6.32;;;;;;;;;;5037101;28;20405;-83
2021/08/30 11:41:51;;;;;;;7.72;5.80;;;;;;;;;;5027889;28;20037;-83
2021/08/30 11:44:16;;;;;;;10.57;6.00;;;;;;;;;;5041366;28;20532;-83
2021/08/30 11:46:46;;;;;;;8.15;5.88;;;;;;;;;;5031402;28;20032;-83
2021/08/30 11:49:11;;;;;;;8.20;5.80;;;;;;;;;;5041890;28;20429;-83
2021/08/30 11:51:37;;;;;;;7.35;5.65;;;;;;;;;;5037187;28;20048;-83
2021/08/30 11:54:02;;;;;;;9.68;6.00;;;;;;;;;;5040581;28;20025;-84
2021/08/30 11:56:33;;;;;;;8.70;6.03;;;;;;;;;;5047234;28;20027;-83
2021/08/30 11:59:00;;;;;;;6.95;5.88;;;;;;;;;;5034260;28;20264;-83
2021/08/30 12:01:25;;;;;;;7.07;5.32;;;;;;;;;;5045846;28;20091;-83
2021/08/30 12:03:50;;;;;;;8.70;6.00;;;;;;;;;;5041461;28;20025;-83
2021/08/30 12:06:16;;;;;;;16.95;8.00;;;;;;;;;;5052206;28;20017;-84
2021/08/30 12:08:51;;;;;;;8.70;5.47;;;;;;;;;;5035157;28;20029;-83
2021/08/30 12:11:18;;;;;;;6.43;5.63;;;;;;;;;;5030419;28;20029;-83
2021/08/30 12:16:20;;;;;;;8.35;5.72;;;;;;;;;;5038616;28;20128;-83
2021/08/30 12:18:53;;;;;;;9.77;5.53;;;;;;;;;;5047355;28;20028;-83
2021/08/30 12:21:31;;;;;;;7.72;5.00;;;;;;;;;;5037142;28;20017;-83
2021/08/30 12:23:57;;;;;;;12.48;5.78;;;;;;;;;;5032511;28;20806;-83
2021/08/30 12:26:23;;;;;;;11.05;6.35;;;;;;;;;;5043440;28;20100;-83
2021/08/30 12:28:53;;;;;;;9.93;5.95;;;;;;;;;;5045428;28;20033;-83
2021/08/30 12:31:24;;;;;;;8.25;5.45;;;;;;;;;;5048945;28;20013;-83
2021/08/30 12:33:59;;;;;;;6.85;5.80;;;;;;;;;;5051662;28;20560;-83
2021/08/30 12:36:24;;;;;;;8.18;5.60;;;;;;;;;;5049377;28;20031;-83
2021/08/30 12:38:50;;;;;;;9.63;5.33;;;;;;;;;;5030852;28;20021;-83
2021/08/30 12:41:15;;;;;;;5.87;5.27;;;;;;;;;;5030684;28;20040;-84
2021/08/30 12:43:45;;;;;;;6.03;5.43;;;;;;;;;;5038743;28;20492;-83
2021/08/30 12:46:10;;;;;;;6.65;5.28;;;;;;;;;;5035941;28;20025;-84
2021/08/30 12:48:35;;;;;;;5.30;4.80;;;;;;;;;;5050257;28;20025;-84
2021/08/30 12:51:01;;;;;;;7.53;4.33;;;;;;;;;;5047136;28;20064;-84
2021/08/30 12:53:26;;;;;;;11.57;4.57;;;;;;;;;;5036057;28;20496;-84
2021/08/30 12:55:51;;;;;;;5.80;4.55;;;;;;;;;;5038217;28;20077;-84
2021/08/30 12:58:17;;;;;;;6.33;4.30;;;;;;;;;;5041630;28;20056;-84
2021/08/30 13:00:43;;;;;;;6.47;4.43;;;;;;;;;;5049221;28;20252;-85
2021/08/30 13:03:08;;;;;;;4.93;4.43;;;;;;;;;;5033767;28;21099;-84
2021/08/30 13:05:39;;;;;;;7.90;4.47;;;;;;;;;;5041969;28;20032;-84
2021/08/30 13:08:04;;;;;;;6.25;4.47;;;;;;;;;;5015530;28;20303;-84
2021/08/30 13:10:29;;;;;;;6.10;4.32;;;;;;;;;;5014651;28;20030;-84
2021/08/30 13:12:55;;;;;;;8.57;4.43;;;;;;;;;;5029396;28;20470;-84
2021/08/30 13:15:22;;;;;;;4.70;4.05;;;;;;;;;;5044225;28;20061;-84
2021/08/30 13:17:48;;;;;;;5.13;4.25;;;;;;;;;;5032332;28;20025;-84
2021/08/30 13:20:13;;;;;;;6.28;3.85;;;;;;;;;;5031756;28;20028;-84
2021/08/30 13:22:39;;;;;;;11.77;4.27;;;;;;;;;;5045800;28;20477;-84
2021/08/30 13:25:05;;;;;;;4.68;3.80;;;;;;;;;;5016253;28;20021;-84
2021/08/30 13:27:32;;;;;;;4.43;4.03;;;;;;;;;;5042125;28;20029;-85
2021/08/30 13:29:57;;;;;;;6.78;3.72;;;;;;;;;;5038858;28;20059;-84
2021/08/30 13:32:22;;;;;;;4.75;3.95;;;;;;;;;;5044949;28;20021;-84
2021/08/30 13:34:48;;;;;;;8.47;5.63;;;;;;;;;;5045890;28;20112;-84
2021/08/30 13:37:13;;;;;;;4.00;3.60;;;;;;;;;;5032104;28;20024;-84
2021/08/30 13:39:38;;;;;;;4.97;3.93;;;;;;;;;;5040487;28;20364;-84
2021/08/30 13:42:04;;;;;;;4.70;4.00;;;;;;;;;;5040599;28;20028;-84
2021/08/30 13:44:29;;;;;;;28.20;25.60;;;;;;;;;;5032338;28;20048;-84
2021/08/30 13:46:54;;;;;;;6.68;5.18;;;;;;;;;;5030862;28;20022;-84
2021/08/30 13:49:19;;;;;;;4.67;3.83;;;;;;;;;;5048727;28;20128;-84
2021/08/30 13:51:45;;;;;;;4.60;4.20;;;;;;;;;;5037780;28;20028;-84
2021/08/30 13:54:11;;;;;;;3.88;3.47;;;;;;;;;;5041297;28;20027;-84
2021/08/30 13:56:36;;;;;;;4.03;3.70;;;;;;;;;;5032368;28;20508;-84
2021/08/30 13:59:01;;;;;;;7.10;6.53;;;;;;;;;;5045644;28;20017;-84
2021/08/30 14:01:27;;;;;;;10.13;9.07;;;;;;;;;;5033743;28;20825;-84
2021/08/30 14:03:52;;;;;;;26.17;23.80;;;;;;;;;;5037845;28;20107;-84
2021/08/30 14:06:17;;;;;;;12.67;11.37;;;;;;;;;;5041701;28;20535;-84
2021/08/30 14:08:42;;;;;;;11.33;10.33;;;;;;;;;;5046595;28;20248;-84
2021/08/30 14:11:07;;;;;;;16.07;14.60;;;;;;;;;;5044255;28;20021;-85
2021/08/30 14:13:33;;;;;;;31.37;28.77;;;;;;;;;;5034919;28;20473;-85
2021/08/30 14:15:58;;;;;;;4.70;4.00;;;;;;;;;;5036977;28;20053;-84
2021/08/30 14:18:24;;;;;;;55.30;50.33;;;;;;;;;;5028250;28;20026;-84
2021/08/30 14:20:49;;;;;;;10.47;9.47;;;;;;;;;;5044788;28;20059;-85
2021/08/30 14:23:14;;;;;;;50.40;40.53;;;;;;;;;;5043223;28;20026;-84
2021/08/30 14:25:39;;;;;;;38.63;34.97;;;;;;;;;;5036477;28;20190;-85